Time;durP1;ratioP1;P1;durP2;ratioP2;P2;SDS_P1;SDS_P2;PMS_P1;PMS_P2;Temp;Humidity;BMP_temperature;BMP_pressure;BME280_temperature;BME280_humidity;BME280_pressure;Samples;Min_cycle;Max_cycle;Signal;HPM_P1;HPM_P2
2023/08/10 00:00:15;;;;;;;2.63;1.10;;;18.20;57.30;;;;;;5046226;28;20037;-52
2023/08/10 00:02:44;;;;;;;2.60;1.23;;;18.10;57.50;;;;;;5030146;28;20045;-54
2023/08/10 00:05:11;;;;;;;1.17;1.08;;;18.10;57.40;;;;;;5048403;28;20099;-53
2023/08/10 00:07:38;;;;;;;2.05;1.25;;;18.10;57.50;;;;;;5030713;28;20450;-52
2023/08/10 00:10:08;;;;;;;2.75;1.10;;;18.10;57.60;;;;;;5048699;28;20079;-54
2023/08/10 00:12:36;;;;;;;3.50;1.20;;;18.10;57.60;;;;;;5047711;28;20041;-50
2023/08/10 00:15:04;;;;;;;1.10;0.98;;;18.10;57.50;;;;;;5047015;28;20087;-52
2023/08/10 00:17:33;;;;;;;1.20;1.10;;;18.10;57.40;;;;;;5048044;28;20045;-50
2023/08/10 00:20:01;;;;;;;2.10;1.15;;;18.10;57.60;;;;;;5044708;28;20423;-53
2023/08/10 00:22:27;;;;;;;2.60;1.33;;;18.10;57.60;;;;;;5048108;28;20041;-51
2023/08/10 00:24:57;;;;;;;2.80;1.00;;;18.10;57.80;;;;;;5046884;28;20041;-54
2023/08/10 00:27:25;;;;;;;1.73;1.40;;;18.10;58.00;;;;;;5047543;28;20037;-53
2023/08/10 00:29:52;;;;;;;1.50;1.17;;;18.10;58.20;;;;;;5029931;28;20049;-51
2023/08/10 00:32:19;;;;;;;2.60;0.93;;;18.10;59.00;;;;;;5045562;28;20331;-54
2023/08/10 00:34:48;;;;;;;1.27;1.00;;;18.10;58.50;;;;;;5026056;28;20449;-54
2023/08/10 00:37:17;;;;;;;5.68;2.25;;;18.20;58.90;;;;;;5021750;28;20052;-52
2023/08/10 00:39:44;;;;;;;1.38;1.02;;;18.20;58.70;;;;;;5029271;28;20138;-53
2023/08/10 00:42:13;;;;;;;2.80;2.10;;;18.20;58.80;;;;;;5048978;28;20049;-54
2023/08/10 00:44:43;;;;;;;3.55;1.85;;;18.20;58.90;;;;;;5034165;28;20441;-54
2023/08/10 00:47:15;;;;;;;1.75;1.20;;;18.20;58.90;;;;;;5049497;28;20560;-53
2023/08/10 00:49:41;;;;;;;5.72;1.33;;;18.30;59.20;;;;;;5034938;28;20052;-52
2023/08/10 00:52:08;;;;;;;2.45;1.30;;;18.30;58.90;;;;;;5049454;28;20449;-49
2023/08/10 00:54:35;;;;;;;3.10;1.27;;;18.30;59.00;;;;;;5049155;28;20562;-53
2023/08/10 00:57:02;;;;;;;2.05;1.05;;;18.30;59.00;;;;;;5049850;28;20045;-53
2023/08/10 00:59:30;;;;;;;1.98;1.42;;;18.30;59.20;;;;;;5048903;28;20049;-52
2023/08/10 01:01:59;;;;;;;2.70;1.30;;;18.40;59.20;;;;;;5031077;28;20047;-54
2023/08/10 01:04:26;;;;;;;4.10;1.38;;;18.50;59.30;;;;;;5052228;28;20072;-52
2023/08/10 01:07:19;;;;;;;2.78;1.25;;;18.50;59.40;;;;;;5032856;28;20098;-54
2023/08/10 01:10:04;;;;;;;1.55;1.13;;;18.50;60.10;;;;;;5033071;28;20061;-53
2023/08/10 01:12:40;;;;;;;2.83;1.40;;;18.50;59.30;;;;;;5024602;28;20042;-54
2023/08/10 01:15:12;;;;;;;1.58;1.48;;;18.50;59.60;;;;;;5049531;28;20071;-50
2023/08/10 01:17:43;;;;;;;1.80;1.25;;;18.60;59.70;;;;;;5055741;28;20493;-53
2023/08/10 01:20:12;;;;;;;4.03;1.90;;;18.60;59.40;;;;;;5032897;28;20037;-51
2023/08/10 01:23:17;;;;;;;2.25;1.08;;;18.60;59.60;;;;;;5033706;28;20083;-53
2023/08/10 01:25:45;;;;;;;1.20;0.93;;;18.60;60.30;;;;;;5049115;28;20033;-54
2023/08/10 01:28:14;;;;;;;2.95;1.35;;;18.60;59.40;;;;;;5032460;28;20052;-53
2023/08/10 01:30:41;;;;;;;2.65;1.33;;;18.60;59.60;;;;;;5047510;28;20095;-54
2023/08/10 01:33:11;;;;;;;5.88;2.00;;;18.60;59.60;;;;;;5033131;28;20635;-49
2023/08/10 01:35:40;;;;;;;1.50;1.40;;;18.60;59.70;;;;;;5033002;28;20106;-50
2023/08/10 01:38:11;;;;;;;3.25;1.23;;;18.60;59.80;;;;;;5050016;28;20037;-51
2023/08/10 01:40:40;;;;;;;2.00;1.35;;;18.60;59.80;;;;;;5052012;28;20044;-52
2023/08/10 01:43:07;;;;;;;1.75;1.00;;;18.70;59.80;;;;;;5049342;28;20041;-54
2023/08/10 01:45:36;;;;;;;1.92;1.23;;;18.70;59.80;;;;;;5032702;28;20037;-50
2023/08/10 01:48:16;;;;;;;2.45;1.63;;;18.70;59.90;;;;;;5031490;28;20064;-51
2023/08/10 01:50:50;;;;;;;2.95;1.20;;;18.70;60.60;;;;;;5051203;28;20065;-52
2023/08/10 01:53:25;;;;;;;1.60;1.02;;;18.70;60.10;;;;;;5027794;28;20052;-54
2023/08/10 01:55:52;;;;;;;1.65;1.05;;;18.70;60.10;;;;;;5048951;28;20632;-54
2023/08/10 01:58:19;;;;;;;2.70;1.20;;;18.70;59.90;;;;;;5033143;28;20052;-51
2023/08/10 02:00:47;;;;;;;2.38;1.45;;;18.70;59.70;;;;;;5032664;28;20040;-51
2023/08/10 02:03:15;;;;;;;2.55;1.65;;;18.70;59.90;;;;;;5032411;28;20072;-54
2023/08/10 02:05:45;;;;;;;2.25;1.13;;;18.70;60.00;;;;;;5051251;28;20756;-51
2023/08/10 02:08:12;;;;;;;2.10;1.10;;;18.70;60.10;;;;;;5031458;28;20106;-53
2023/08/10 02:10:41;;;;;;;2.63;1.30;;;18.70;60.00;;;;;;5050476;28;20049;-54
2023/08/10 02:13:10;;;;;;;1.20;1.10;;;18.70;59.80;;;;;;5050421;28;20037;-51
2023/08/10 02:15:37;;;;;;;2.00;1.35;;;18.70;59.80;;;;;;5032049;28;20136;-52
2023/08/10 02:18:12;;;;;;;1.13;1.00;;;18.60;59.90;;;;;;5050098;28;20087;-49
2023/08/10 02:20:42;;;;;;;2.53;1.30;;;18.60;60.00;;;;;;5051043;28;20040;-53
2023/08/10 02:23:11;;;;;;;2.10;1.60;;;18.60;60.10;;;;;;5032465;28;20562;-53
2023/08/10 02:25:38;;;;;;;1.65;1.15;;;18.60;60.30;;;;;;5030883;28;20664;-53
2023/08/10 02:28:04;;;;;;;3.90;1.85;;;18.60;60.50;;;;;;5029060;28;20415;-52
2023/08/10 02:30:31;;;;;;;1.80;1.13;;;18.60;60.60;;;;;;5048344;28;20069;-54
2023/08/10 02:32:58;;;;;;;3.88;1.60;;;18.60;60.60;;;;;;5049602;28;20406;-51
2023/08/10 02:35:28;;;;;;;2.55;1.63;;;18.60;60.60;;;;;;5051002;28;20041;-51
2023/08/10 02:38:00;;;;;;;1.80;1.38;;;18.60;60.70;;;;;;5048722;28;20049;-54
2023/08/10 02:40:31;;;;;;;2.20;1.33;;;18.60;61.10;;;;;;5048917;28;20099;-51
2023/08/10 02:43:00;;;;;;;1.50;1.33;;;18.60;60.80;;;;;;5048203;28;20068;-54
2023/08/10 02:45:29;;;;;;;2.05;1.20;;;18.60;60.80;;;;;;5031924;28;20138;-53
2023/08/10 02:47:56;;;;;;;2.03;1.50;;;18.60;61.00;;;;;;5048103;28;20048;-50
2023/08/10 02:50:25;;;;;;;1.67;1.38;;;18.60;61.00;;;;;;5050922;28;20045;-50
2023/08/10 02:52:52;;;;;;;2.22;1.45;;;18.60;60.90;;;;;;5048026;28;20037;-49
2023/08/10 02:55:18;;;;;;;3.15;1.60;;;18.60;60.70;;;;;;5034632;28;20110;-51
2023/08/10 02:57:45;;;;;;;4.35;1.73;;;18.60;60.40;;;;;;5049466;28;20411;-52
2023/08/10 03:00:14;;;;;;;2.08;1.88;;;18.60;60.40;;;;;;5048324;28;20076;-53
2023/08/10 03:02:41;;;;;;;1.90;1.80;;;18.60;60.60;;;;;;5048951;28;20663;-50
2023/08/10 03:05:12;;;;;;;1.50;1.40;;;18.60;60.40;;;;;;5029520;28;20061;-50
2023/08/10 03:07:39;;;;;;;2.85;1.42;;;18.60;60.60;;;;;;5030341;28;20150;-50
2023/08/10 03:10:09;;;;;;;2.22;1.63;;;18.60;60.70;;;;;;5031759;28;20042;-49
2023/08/10 03:12:54;;;;;;;2.35;1.60;;;18.60;60.50;;;;;;5015200;28;20403;-53
2023/08/10 03:15:22;;;;;;;3.33;1.67;;;18.60;60.40;;;;;;5020793;28;20043;-49
2023/08/10 03:17:49;;;;;;;2.03;1.88;;;18.70;60.70;;;;;;5046045;28;20128;-53
2023/08/10 03:20:17;;;;;;;4.07;2.15;;;18.70;60.80;;;;;;5022317;28;20041;-50
2023/08/10 03:22:46;;;;;;;3.35;2.00;;;18.70;60.60;;;;;;5026945;28;20045;-53
2023/08/10 03:25:15;;;;;;;2.38;1.60;;;18.70;60.60;;;;;;5049954;28;20045;-52
2023/08/10 03:27:42;;;;;;;2.00;1.45;;;18.60;61.00;;;;;;5027848;28;20475;-53
2023/08/10 03:30:12;;;;;;;1.85;1.40;;;18.70;61.00;;;;;;5031151;28;20518;-51
2023/08/10 03:32:40;;;;;;;1.58;1.45;;;18.70;61.10;;;;;;5048014;28;20091;-52
2023/08/10 03:35:07;;;;;;;3.22;1.63;;;18.70;61.40;;;;;;5036974;28;20037;-54
2023/08/10 03:37:34;;;;;;;3.63;1.67;;;18.70;61.40;;;;;;5030078;28;20056;-50
2023/08/10 03:40:01;;;;;;;2.55;1.50;;;18.70;61.40;;;;;;5031697;28;20557;-53
2023/08/10 03:42:30;;;;;;;1.73;1.50;;;18.70;61.60;;;;;;5048416;28;20045;-50
2023/08/10 03:44:58;;;;;;;3.20;1.60;;;18.70;61.60;;;;;;5031112;28;20036;-53
2023/08/10 03:47:27;;;;;;;4.78;1.80;;;18.70;61.60;;;;;;5030121;28;20503;-54
2023/08/10 03:49:57;;;;;;;5.25;2.05;;;18.60;61.50;;;;;;5032169;28;20033;-49
2023/08/10 03:52:24;;;;;;;2.50;1.55;;;18.60;61.60;;;;;;5030773;28;20045;-51
2023/08/10 03:54:51;;;;;;;1.67;1.42;;;18.60;61.70;;;;;;5028888;28;20036;-52
2023/08/10 03:57:18;;;;;;;2.30;2.10;;;18.60;61.90;;;;;;5024577;28;20102;-51
2023/08/10 03:59:46;;;;;;;2.05;1.50;;;18.60;61.90;;;;;;5031062;28;20076;-51
2023/08/10 04:02:14;;;;;;;2.13;1.48;;;18.60;61.90;;;;;;5030927;28;20057;-51
2023/08/10 04:04:43;;;;;;;5.38;2.50;;;18.60;61.90;;;;;;5032054;28;20092;-52
2023/08/10 04:07:14;;;;;;;1.88;1.60;;;18.60;61.80;;;;;;5045294;28;20049;-49
2023/08/10 04:09:46;;;;;;;2.37;1.47;;;18.60;61.90;;;;;;5050074;28;20041;-55
2023/08/10 04:12:15;;;;;;;4.95;2.00;;;18.50;61.60;;;;;;5027975;28;20055;-54
2023/08/10 04:14:42;;;;;;;2.92;1.50;;;18.50;61.60;;;;;;5049601;28;20566;-52
2023/08/10 04:17:11;;;;;;;1.90;1.80;;;18.50;61.60;;;;;;5034538;28;20616;-52
2023/08/10 04:19:40;;;;;;;2.55;1.63;;;18.50;61.70;;;;;;5053898;28;20048;-52
2023/08/10 04:22:07;;;;;;;2.30;1.40;;;18.40;61.70;;;;;;5050304;28;20060;-52
2023/08/10 04:24:35;;;;;;;1.63;1.50;;;18.30;61.50;;;;;;5053800;28;20045;-49
2023/08/10 04:27:03;;;;;;;2.70;1.95;;;18.30;61.60;;;;;;5050588;28;20069;-53
2023/08/10 04:29:32;;;;;;;2.95;1.70;;;18.30;61.80;;;;;;5050423;28;20072;-50
2023/08/10 04:31:58;;;;;;;3.38;1.75;;;18.20;61.90;;;;;;5052077;28;20120;-54
2023/08/10 04:34:28;;;;;;;3.55;1.80;;;18.20;62.10;;;;;;5053550;28;20041;-50
2023/08/10 04:36:57;;;;;;;2.35;2.10;;;18.20;62.50;;;;;;5052601;28;20053;-51
2023/08/10 04:39:24;;;;;;;3.53;1.90;;;18.20;62.50;;;;;;5050856;28;20048;-51
2023/08/10 04:41:50;;;;;;;2.47;1.77;;;18.20;62.70;;;;;;5046121;28;20123;-53
2023/08/10 04:44:18;;;;;;;2.72;1.90;;;18.20;63.00;;;;;;5047751;28;20459;-50
2023/08/10 04:46:45;;;;;;;4.78;1.75;;;18.20;63.10;;;;;;5052111;28;20071;-48
2023/08/10 04:49:11;;;;;;;2.08;1.58;;;18.20;63.30;;;;;;5057538;28;20075;-51
2023/08/10 04:51:38;;;;;;;2.40;1.40;;;18.20;63.40;;;;;;5052451;28;20116;-50
2023/08/10 04:54:05;;;;;;;3.42;1.77;;;18.30;63.60;;;;;;5051132;28;20036;-50
2023/08/10 04:56:31;;;;;;;2.25;1.90;;;18.30;63.70;;;;;;5052365;28;20059;-53
2023/08/10 04:58:58;;;;;;;2.97;1.65;;;18.30;63.70;;;;;;5051162;28;20041;-53
2023/08/10 05:01:25;;;;;;;4.05;2.22;;;18.40;63.80;;;;;;5036038;28;20075;-50
2023/08/10 05:03:51;;;;;;;2.30;1.88;;;18.40;63.70;;;;;;5052262;28;20037;-52
2023/08/10 05:06:18;;;;;;;3.65;2.17;;;18.40;63.20;;;;;;5052106;28;20563;-53
2023/08/10 05:08:45;;;;;;;2.65;1.77;;;18.40;63.10;;;;;;5050901;28;20574;-54
2023/08/10 05:11:11;;;;;;;4.55;2.13;;;18.50;63.30;;;;;;5052377;28;20493;-53
2023/08/10 05:13:40;;;;;;;3.22;2.30;;;18.50;63.10;;;;;;5052151;28;20098;-51
2023/08/10 05:16:10;;;;;;;4.05;2.22;;;18.60;63.10;;;;;;5052970;28;20542;-50
2023/08/10 05:18:37;;;;;;;2.58;2.00;;;18.60;62.80;;;;;;5051067;28;20072;-53
2023/08/10 05:21:03;;;;;;;2.20;2.00;;;18.60;62.80;;;;;;5051692;28;20096;-49
2023/08/10 05:23:30;;;;;;;2.67;2.33;;;18.70;62.80;;;;;;5051291;28;20123;-53
2023/08/10 05:25:57;;;;;;;5.00;3.15;;;18.70;62.50;;;;;;5046681;28;20128;-51
2023/08/10 05:28:23;;;;;;;3.47;2.67;;;18.80;62.60;;;;;;5047527;28;20123;-53
2023/08/10 05:30:50;;;;;;;5.40;3.00;;;18.80;62.50;;;;;;5043356;28;20095;-54
2023/08/10 05:33:17;;;;;;;2.50;2.30;;;18.90;62.70;;;;;;5047143;28;20148;-54
2023/08/10 05:35:43;;;;;;;4.82;2.78;;;18.90;62.60;;;;;;5052341;28;20064;-52
2023/08/10 05:38:10;;;;;;;5.55;3.13;;;18.90;62.50;;;;;;5042103;28;20817;-54
2023/08/10 05:40:37;;;;;;;4.80;2.78;;;19.00;62.60;;;;;;5047063;28;20099;-53
2023/08/10 05:43:04;;;;;;;3.00;2.67;;;19.00;62.50;;;;;;5046872;28;20048;-54
2023/08/10 05:45:31;;;;;;;3.25;2.95;;;19.00;62.50;;;;;;5049570;28;20511;-54
2023/08/10 05:47:58;;;;;;;3.83;2.75;;;19.10;62.40;;;;;;5044321;28;20103;-51
2023/08/10 05:50:25;;;;;;;5.32;3.20;;;19.10;62.30;;;;;;5053495;28;20077;-53
2023/08/10 05:52:51;;;;;;;3.63;3.33;;;19.10;62.50;;;;;;5048457;28;20041;-54
2023/08/10 05:55:18;;;;;;;4.00;2.95;;;19.10;62.50;;;;;;5050399;28;20084;-53
2023/08/10 05:57:45;;;;;;;3.53;2.88;;;19.10;62.00;;;;;;5048557;28;20562;-53
2023/08/10 06:00:13;;;;;;;4.70;3.08;;;19.10;62.30;;;;;;5049439;28;20052;-52
2023/08/10 06:02:44;;;;;;;5.05;3.15;;;19.10;62.50;;;;;;5050092;28;20043;-51
2023/08/10 06:05:12;;;;;;;4.22;3.17;;;19.10;61.70;;;;;;5050022;28;20140;-54
2023/08/10 06:07:39;;;;;;;5.32;3.38;;;19.10;62.20;;;;;;5049357;28;20037;-53
2023/08/10 06:10:06;;;;;;;4.20;3.15;;;19.10;62.00;;;;;;5050417;28;20068;-52
2023/08/10 06:12:33;;;;;;;3.92;3.45;;;19.10;62.10;;;;;;5049631;28;20040;-53
2023/08/10 06:15:00;;;;;;;4.88;3.45;;;19.10;62.20;;;;;;5034150;28;20120;-52
2023/08/10 06:17:26;;;;;;;3.65;2.63;;;19.10;62.30;;;;;;5051423;28;20541;-53
2023/08/10 06:19:53;;;;;;;3.60;3.08;;;19.10;62.50;;;;;;5045636;28;20506;-50
2023/08/10 06:22:24;;;;;;;5.30;3.05;;;19.10;62.60;;;;;;5046606;28;20044;-52
2023/08/10 06:24:51;;;;;;;4.05;3.00;;;19.10;62.70;;;;;;5050278;28;20037;-50
2023/08/10 06:27:18;;;;;;;2.67;2.35;;;19.00;62.30;;;;;;5048875;28;20387;-52
2023/08/10 06:29:44;;;;;;;10.52;2.70;;;19.00;62.40;;;;;;5041478;28;20069;-54
2023/08/10 06:32:11;;;;;;;2.65;1.98;;;19.10;62.60;;;;;;5047643;28;20118;-52
2023/08/10 06:34:38;;;;;;;2.90;1.58;;;19.10;62.70;;;;;;5045001;28;20095;-49
2023/08/10 06:37:04;;;;;;;4.65;1.77;;;19.00;62.70;;;;;;5031690;28;20059;-49
2023/08/10 06:39:31;;;;;;;2.45;1.33;;;19.10;62.60;;;;;;5041656;28;20071;-53
2023/08/10 06:41:58;;;;;;;2.72;1.38;;;19.10;62.00;;;;;;5028569;28;20511;-51
2023/08/10 06:44:29;;;;;;;1.35;1.23;;;19.10;62.10;;;;;;5021760;28;20029;-53
2023/08/10 06:46:55;;;;;;;1.58;1.08;;;19.10;61.10;;;;;;5025795;28;20114;-51
2023/08/10 06:49:23;;;;;;;3.30;1.40;;;19.10;61.50;;;;;;5043291;28;20064;-53
2023/08/10 06:51:50;;;;;;;3.72;1.27;;;19.10;60.80;;;;;;5050286;28;20037;-53
2023/08/10 06:54:18;;;;;;;1.50;1.40;;;19.10;60.80;;;;;;5042855;28;20045;-53
2023/08/10 06:56:44;;;;;;;2.80;0.98;;;19.20;60.00;;;;;;5048183;28;20041;-53
2023/08/10 06:59:11;;;;;;;2.08;1.00;;;19.20;60.00;;;;;;5042463;28;20057;-53
2023/08/10 07:01:41;;;;;;;2.92;0.80;;;19.30;60.00;;;;;;5045495;28;20108;-51
2023/08/10 07:04:07;;;;;;;1.92;1.00;;;19.20;59.90;;;;;;5045053;28;20044;-53
2023/08/10 07:06:34;;;;;;;4.40;1.80;;;19.20;58.90;;;;;;5046994;28;20453;-54
2023/08/10 07:09:01;;;;;;;2.42;0.80;;;19.30;58.50;;;;;;5046041;28;20045;-54
2023/08/10 07:11:28;;;;;;;1.00;0.70;;;19.30;57.40;;;;;;5050383;28;20064;-53
2023/08/10 07:13:54;;;;;;;1.38;0.52;;;19.40;57.70;;;;;;5043538;28;20043;-50
2023/08/10 07:16:21;;;;;;;1.25;0.80;;;19.40;58.10;;;;;;5047045;28;20580;-52
2023/08/10 07:18:48;;;;;;;1.92;0.80;;;19.40;57.80;;;;;;5045149;28;20049;-49
2023/08/10 07:21:15;;;;;;;0.75;0.65;;;19.50;57.40;;;;;;5040284;28;20036;-51
2023/08/10 07:23:41;;;;;;;0.80;0.60;;;19.50;57.10;;;;;;5046372;28;20045;-53
2023/08/10 07:26:08;;;;;;;4.05;0.75;;;19.50;57.60;;;;;;5050637;28;20045;-50
2023/08/10 07:28:35;;;;;;;1.83;0.80;;;19.60;58.30;;;;;;5044955;28;20128;-53
2023/08/10 07:31:02;;;;;;;2.15;1.00;;;19.60;57.80;;;;;;5048788;28;20515;-54
2023/08/10 07:33:29;;;;;;;1.55;0.80;;;19.60;57.00;;;;;;5047679;28;20048;-53
2023/08/10 07:35:56;;;;;;;2.67;0.93;;;19.70;56.90;;;;;;5046756;28;20049;-52
2023/08/10 07:38:23;;;;;;;0.77;0.60;;;19.70;56.60;;;;;;5030722;28;20140;-54
2023/08/10 07:40:50;;;;;;;5.63;2.10;;;19.70;56.80;;;;;;5050025;28;20041;-53
2023/08/10 07:43:17;;;;;;;1.52;0.70;;;19.80;57.00;;;;;;5039887;28;20045;-54
2023/08/10 07:45:44;;;;;;;3.65;1.00;;;19.80;56.60;;;;;;5048973;28;20052;-54
2023/08/10 07:48:10;;;;;;;1.95;0.73;;;19.90;55.50;;;;;;5044392;28;20064;-53
2023/08/10 07:50:39;;;;;;;1.40;1.17;;;19.90;55.20;;;;;;5037974;28;20557;-52
2023/08/10 07:53:06;;;;;;;3.78;1.30;;;19.90;55.40;;;;;;5046999;28;20111;-54
2023/08/10 07:55:33;;;;;;;2.03;0.80;;;20.00;55.70;;;;;;5049282;28;20041;-54
2023/08/10 07:57:59;;;;;;;1.30;0.80;;;20.00;55.60;;;;;;5040025;28;20047;-54
2023/08/10 08:00:26;;;;;;;2.70;0.93;;;20.10;55.40;;;;;;5041257;28;20099;-54
2023/08/10 08:02:53;;;;;;;1.33;1.10;;;20.10;55.00;;;;;;5044795;28;20074;-54
2023/08/10 08:05:20;;;;;;;1.02;0.63;;;20.10;55.10;;;;;;5042288;28;20041;-54
2023/08/10 08:07:46;;;;;;;1.63;0.63;;;20.20;54.90;;;;;;5043823;28;20546;-52
2023/08/10 08:10:13;;;;;;;1.25;0.98;;;20.20;54.70;;;;;;5045855;28;20453;-49
2023/08/10 08:12:40;;;;;;;1.65;1.25;;;20.30;54.60;;;;;;5048396;28;20091;-51
2023/08/10 08:15:07;;;;;;;2.80;0.73;;;20.30;54.40;;;;;;5041333;28;20091;-53
2023/08/10 08:18:12;;;;;;;1.10;0.85;;;20.40;53.80;;;;;;5035127;28;20059;-52
2023/08/10 08:20:38;;;;;;;1.95;0.85;;;20.40;53.00;;;;;;5042987;28;20523;-54
2023/08/10 08:23:05;;;;;;;1.67;0.63;;;20.40;53.30;;;;;;5043425;28;20473;-54
2023/08/10 08:25:32;;;;;;;1.55;0.60;;;20.50;53.00;;;;;;5045477;28;20045;-53
2023/08/10 08:27:58;;;;;;;2.75;0.70;;;20.50;53.20;;;;;;5045603;28;20124;-54
2023/08/10 08:30:27;;;;;;;1.25;0.88;;;20.70;53.00;;;;;;5044325;28;20041;-52
2023/08/10 08:32:54;;;;;;;1.02;0.65;;;20.60;53.10;;;;;;5045215;28;20033;-52
2023/08/10 08:35:21;;;;;;;3.83;1.35;;;20.60;52.80;;;;;;5048358;28;20071;-52
2023/08/10 08:37:47;;;;;;;2.00;0.82;;;20.60;53.00;;;;;;5046190;28;20116;-53
2023/08/10 08:40:14;;;;;;;1.75;0.77;;;20.70;52.80;;;;;;5045745;28;20041;-52
2023/08/10 08:42:47;;;;;;;1.15;0.68;;;20.70;52.90;;;;;;5048587;28;20059;-49
2023/08/10 08:45:15;;;;;;;2.15;0.70;;;20.70;52.80;;;;;;5048248;28;20083;-53
2023/08/10 08:47:45;;;;;;;2.08;0.77;;;20.80;52.40;;;;;;5041546;28;20116;-54
2023/08/10 08:50:15;;;;;;;4.15;0.98;;;20.80;52.60;;;;;;5041853;28;20115;-50
2023/08/10 08:52:44;;;;;;;1.52;1.20;;;20.90;53.20;;;;;;5040941;28;20060;-53
2023/08/10 08:55:12;;;;;;;0.75;0.65;;;20.90;53.00;;;;;;5041494;28;20593;-53
2023/08/10 08:57:38;;;;;;;1.40;0.80;;;20.90;53.40;;;;;;5043687;28;20108;-54
2023/08/10 09:00:06;;;;;;;1.45;0.80;;;21.00;52.90;;;;;;5043127;28;20733;-52
2023/08/10 09:02:33;;;;;;;2.03;1.00;;;21.10;52.70;;;;;;5047909;28;20407;-52
2023/08/10 09:05:02;;;;;;;2.15;1.60;;;21.10;52.50;;;;;;5052573;28;20499;-53
2023/08/10 09:07:29;;;;;;;2.20;0.82;;;21.10;52.80;;;;;;5048003;28;20041;-51
2023/08/10 09:09:56;;;;;;;1.13;0.73;;;21.20;53.00;;;;;;5045135;28;20481;-54
2023/08/10 09:12:35;;;;;;;0.85;0.80;;;21.20;53.10;;;;;;5051496;28;20526;-53
2023/08/10 09:15:09;;;;;;;1.85;0.80;;;21.30;52.40;;;;;;5051328;28;20047;-54
2023/08/10 09:17:53;;;;;;;1.42;0.82;;;21.30;53.10;;;;;;5044146;28;20037;-54
2023/08/10 09:20:28;;;;;;;0.80;0.80;;;21.30;53.00;;;;;;5044954;28;20048;-52
2023/08/10 09:22:59;;;;;;;3.28;0.85;;;21.40;52.60;;;;;;5044039;28;20038;-52
2023/08/10 09:25:26;;;;;;;1.00;0.90;;;21.40;52.60;;;;;;5050424;28;20527;-53
2023/08/10 09:27:53;;;;;;;2.00;0.90;;;21.50;52.00;;;;;;5045653;28;20045;-51
2023/08/10 09:30:20;;;;;;;1.88;1.00;;;21.50;52.20;;;;;;5045249;28;20120;-53
2023/08/10 09:32:47;;;;;;;1.77;0.77;;;21.50;52.50;;;;;;5047998;28;20086;-54
2023/08/10 09:35:19;;;;;;;3.42;1.00;;;21.60;52.20;;;;;;5028406;28;20094;-54
2023/08/10 09:37:46;;;;;;;1.98;0.70;;;21.60;52.30;;;;;;5049497;28;20037;-51
2023/08/10 09:40:17;;;;;;;1.42;0.80;;;21.70;51.70;;;;;;5051230;28;20410;-53
2023/08/10 09:42:44;;;;;;;1.80;0.80;;;21.70;52.10;;;;;;5044281;28;20124;-52
2023/08/10 09:45:12;;;;;;;1.13;0.82;;;21.80;52.10;;;;;;5045310;28;20073;-51
2023/08/10 09:47:41;;;;;;;2.05;0.95;;;21.80;51.70;;;;;;5051710;28;20037;-54
2023/08/10 09:50:12;;;;;;;2.95;0.90;;;21.80;51.40;;;;;;5051354;28;20510;-50
2023/08/10 09:52:39;;;;;;;2.17;0.90;;;21.90;51.70;;;;;;5029203;28;20475;-52
2023/08/10 09:55:08;;;;;;;0.98;0.90;;;21.90;52.60;;;;;;5050716;28;20033;-54
2023/08/10 09:57:40;;;;;;;2.43;1.00;;;22.00;53.00;;;;;;5051382;28;20509;-53
2023/08/10 10:00:17;;;;;;;2.70;1.70;;;22.10;52.70;;;;;;5045693;28;20448;-53
2023/08/10 10:02:45;;;;;;;1.20;1.02;;;22.10;52.20;;;;;;5047871;28;20045;-52
2023/08/10 10:05:14;;;;;;;1.42;1.00;;;22.20;51.90;;;;;;5045831;28;20049;-52
2023/08/10 10:08:02;;;;;;;1.73;0.98;;;22.20;52.30;;;;;;5040367;28;20052;-52
2023/08/10 10:10:30;;;;;;;1.65;1.30;;;22.30;51.90;;;;;;5041452;28;20037;-54
2023/08/10 10:12:58;;;;;;;1.95;1.13;;;22.30;51.70;;;;;;5046821;28;20087;-52
2023/08/10 10:15:25;;;;;;;1.58;0.98;;;22.40;51.40;;;;;;5051048;28;20320;-54
2023/08/10 10:17:54;;;;;;;2.65;1.35;;;22.40;51.30;;;;;;5045262;28;20394;-54
2023/08/10 10:20:22;;;;;;;1.30;1.02;;;22.50;51.70;;;;;;5049404;28;20040;-51
2023/08/10 10:22:51;;;;;;;1.30;1.20;;;22.50;52.00;;;;;;5050021;28;20112;-54
2023/08/10 10:25:20;;;;;;;2.50;1.15;;;22.60;52.00;;;;;;5052652;28;20499;-50
2023/08/10 10:27:49;;;;;;;1.23;0.88;;;22.60;51.90;;;;;;5040609;28;20527;-50
2023/08/10 10:30:17;;;;;;;1.85;1.48;;;22.70;52.30;;;;;;5044939;28;20048;-54
2023/08/10 10:32:50;;;;;;;1.17;1.08;;;22.80;51.30;;;;;;5047485;28;20437;-53
2023/08/10 10:35:31;;;;;;;1.38;1.02;;;22.80;52.10;;;;;;5050293;28;20045;-54
2023/08/10 10:38:01;;;;;;;1.98;1.40;;;22.90;51.50;;;;;;5049964;28;20041;-53
2023/08/10 10:40:27;;;;;;;3.65;0.93;;;22.90;51.00;;;;;;5049085;28;20122;-51
2023/08/10 10:43:03;;;;;;;1.08;0.95;;;23.00;50.90;;;;;;5041656;28;20037;-54
2023/08/10 10:45:35;;;;;;;1.35;1.25;;;23.00;52.40;;;;;;5046623;28;20041;-50
2023/08/10 10:48:04;;;;;;;;;;;23.10;51.90;;;;;;5045709;28;20037;-52
2023/08/10 10:50:31;;;;;;;1.00;0.90;;;23.20;52.10;;;;;;5045371;28;19920;-54
2023/08/10 10:53:06;;;;;;;1.83;0.93;;;23.30;52.20;;;;;;5042063;28;20041;-50
2023/08/10 10:55:35;;;;;;;1.77;1.05;;;23.40;51.40;;;;;;5044689;28;20069;-54
2023/08/10 10:58:07;;;;;;;1.75;0.95;;;23.50;52.00;;;;;;5044740;28;20045;-53
2023/08/10 11:00:36;;;;;;;1.50;1.40;;;23.50;50.80;;;;;;5044155;28;20047;-52
2023/08/10 11:03:04;;;;;;;2.38;0.82;;;23.60;50.10;;;;;;5047572;28;20641;-54
2023/08/10 11:05:32;;;;;;;1.38;1.10;;;23.60;51.20;;;;;;5050333;28;20040;-51
2023/08/10 11:08:08;;;;;;;3.50;1.30;;;23.70;51.50;;;;;;5047507;28;20091;-53
2023/08/10 11:10:37;;;;;;;1.20;0.98;;;23.80;50.60;;;;;;5046234;28;20048;-53
2023/08/10 11:13:05;;;;;;;0.77;0.65;;;23.80;49.80;;;;;;5049097;28;20079;-53
2023/08/10 11:15:34;;;;;;;3.38;1.33;;;23.90;50.20;;;;;;5042681;28;20042;-50
2023/08/10 11:18:08;;;;;;;2.38;1.17;;;23.90;50.20;;;;;;5045184;28;20032;-52
2023/08/10 11:20:35;;;;;;;2.15;1.70;;;24.00;49.80;;;;;;5046489;28;20037;-52
2023/08/10 11:23:02;;;;;;;1.25;1.15;;;24.00;49.40;;;;;;5041443;28;20041;-54
2023/08/10 11:25:31;;;;;;;4.35;1.20;;;24.10;49.90;;;;;;5045380;28;20121;-54
2023/08/10 11:27:59;;;;;;;2.25;1.25;;;24.10;50.20;;;;;;5044194;28;20100;-54
2023/08/10 11:30:28;;;;;;;1.75;1.30;;;24.30;50.20;;;;;;5046768;28;20040;-54
2023/08/10 11:32:55;;;;;;;1.90;1.10;;;24.30;49.00;;;;;;5043337;28;20030;-51
2023/08/10 11:35:25;;;;;;;0.93;0.90;;;24.30;49.70;;;;;;5046086;28;20047;-52
2023/08/10 11:37:53;;;;;;;2.60;1.30;;;24.40;49.40;;;;;;5048637;28;20108;-53
2023/08/10 11:40:22;;;;;;;2.63;1.10;;;24.50;49.60;;;;;;5043211;28;20160;-53
2023/08/10 11:43:02;;;;;;;1.27;1.10;;;24.50;49.80;;;;;;5048375;28;20555;-54
2023/08/10 11:45:30;;;;;;;1.52;1.27;;;24.50;49.50;;;;;;5050092;28;20112;-53
2023/08/10 11:47:57;;;;;;;1.35;1.25;;;24.50;48.90;;;;;;5047999;28;20041;-53
2023/08/10 11:50:29;;;;;;;2.53;1.02;;;24.60;48.90;;;;;;5044116;28;20029;-54
2023/08/10 11:53:00;;;;;;;1.70;1.10;;;24.60;48.50;;;;;;5036267;28;20049;-52
2023/08/10 11:55:27;;;;;;;1.48;1.25;;;24.60;48.50;;;;;;5043324;28;20123;-54
2023/08/10 11:57:57;;;;;;;1.42;1.00;;;24.70;48.40;;;;;;5049276;28;20041;-52
2023/08/10 12:00:30;;;;;;;1.50;1.38;;;24.70;48.70;;;;;;5043904;28;20033;-51
2023/08/10 12:03:01;;;;;;;3.60;1.23;;;24.70;48.00;;;;;;5046251;28;20052;-54
2023/08/10 12:05:35;;;;;;;1.95;1.02;;;24.80;48.40;;;;;;5049091;28;20071;-52
2023/08/10 12:08:13;;;;;;;1.48;0.98;;;24.90;48.40;;;;;;5046895;28;20438;-52
2023/08/10 12:10:42;;;;;;;1.60;1.20;;;24.90;48.50;;;;;;5045493;28;20094;-52
2023/08/10 12:13:12;;;;;;;4.75;1.42;;;24.90;48.80;;;;;;5041805;28;20045;-53
2023/08/10 12:15:46;;;;;;;1.83;1.05;;;25.00;48.60;;;;;;5029869;28;20573;-54
2023/08/10 12:18:18;;;;;;;1.73;1.63;;;25.10;48.20;;;;;;5046875;28;20044;-52
2023/08/10 12:20:50;;;;;;;2.17;1.35;;;25.10;47.90;;;;;;5039044;28;20491;-55
2023/08/10 12:23:17;;;;;;;1.42;1.08;;;25.30;48.10;;;;;;5053284;28;20396;-51
2023/08/10 12:25:45;;;;;;;2.53;1.58;;;25.30;48.60;;;;;;5022536;28;20468;-54
2023/08/10 12:28:14;;;;;;;1.98;1.15;;;25.40;48.90;;;;;;5047851;28;20116;-54
2023/08/10 12:30:41;;;;;;;1.75;1.35;;;25.50;48.80;;;;;;5043460;28;20710;-54
2023/08/10 12:33:10;;;;;;;2.53;1.05;;;25.60;47.70;;;;;;5046224;28;20057;-53
2023/08/10 12:35:38;;;;;;;1.45;1.30;;;25.60;47.60;;;;;;5053779;28;20120;-54
2023/08/10 12:38:05;;;;;;;1.05;1.02;;;25.70;47.30;;;;;;5051129;28;20120;-54
2023/08/10 12:40:33;;;;;;;1.35;1.23;;;25.90;48.10;;;;;;5042241;28;20090;-54
2023/08/10 12:42:59;;;;;;;1.25;1.10;;;25.90;47.10;;;;;;5052309;28;20478;-55
2023/08/10 12:45:26;;;;;;;3.60;1.38;;;26.00;46.70;;;;;;5053220;28;20044;-55
2023/08/10 12:47:56;;;;;;;1.17;0.95;;;26.20;46.60;;;;;;5033910;28;20037;-54
2023/08/10 12:50:23;;;;;;;1.67;1.15;;;26.30;46.50;;;;;;5044588;28;20047;-54
2023/08/10 12:52:51;;;;;;;2.65;1.30;;;26.40;46.20;;;;;;5045794;28;20035;-54
2023/08/10 12:55:18;;;;;;;1.48;1.25;;;26.50;46.70;;;;;;5048330;28;20059;-54